메인 페이지
METAR-TAF:

METAR-TAF

공항 :

제주국제공항

제주, 대한민국

위도: 33-30N, 경도: 126-30E, 고도: 36m

현재 날씨관측

예보는 58분 전, 08:00시(UTC)에 발표되었습니다.
19kt
온도 20°C
습도 68%
기압 1015 hPa
시정 10km 이상
고도 1500ft 상공 구름 조금
고도 7000ft 상공 구름 많음

METAR: RKPC 210800Z 08019KT 9999 FEW015 BKN070 20/14 Q1015 NOSIG

시각: 17:58 (08:58 UTC)

예보

예보는 3 시간 58분 전, 05:00시(UTC)에 발표되었습니다.
예보 대상 시간: 21일 06시부터 22일 12시까지 (UTC)
동북동15kt, 순간 최대 풍속 25kt
시정: 7000m
고도 1000ft 상공 구름 조금
고도 2500ft 상공 구름 많음
전환 중
21일 09시부터 21일 10시까지 (UTC)
10kt
고도 3000ft 상공 구름 보통
고도 18000ft 상공 구름 많음
전환 중
22일 04시부터 22일 05시까지 (UTC)
남서12kt
전환 중
22일 11시부터 22일 12시까지 (UTC)
5kt
고도 1000ft 상공 구름 조금
고도 3000ft 상공 구름 많음
고도 10000ft 상공 흐림

TAF: RKPC 210500Z 2106/2212 07015G25KT 7000 FEW010 BKN025 TN16/2119Z TX22/2205Z BECMG 2109/2110 08010KT SCT030 BKN180 BECMG 2204/2205 23012KT BECMG 2211/2212 17005KT FEW010 BKN030 OVC100

4,000개 이상의 공항 관측 자료 및 예보 (METAR 및 TAF 보고).

지도상에서 검색 가능한 기상관측소가 노란 점과 빨간 점으로 표시되어 있습니다.

기상관측소 명을 보려면 표시 위로 마우스를 이동하세요.

날씨 관측과 예보를 보려면 클릭하세요.

지도 변경 : 확대하려면 엑스 표시가 있는 녹색 버튼, 축소하려면 빼기 표시가 있는 녹색 버튼, 다음 페이지의 지도를 보려면 녹색 화살표를 클릭하세요.


METAR-TAF: